createdAt,value
2023-04-27T00:00:13.495Z,9.81
2023-04-27T00:02:43.283Z,9.82
2023-04-27T00:05:13.419Z,9.78
2023-04-27T00:07:42.144Z,9.81
2023-04-27T00:10:11.315Z,9.78
2023-04-27T00:12:39.786Z,9.78
2023-04-27T00:15:09.711Z,9.76
2023-04-27T00:17:38.451Z,9.64
2023-04-27T00:20:11.996Z,9.71
2023-04-27T00:22:40.289Z,9.72
2023-04-27T00:25:09.144Z,9.74
2023-04-27T00:27:37.415Z,9.71
2023-04-27T00:30:06.751Z,9.70
2023-04-27T00:32:35.164Z,9.65
2023-04-27T00:35:03.419Z,9.56
2023-04-27T00:37:33.090Z,9.62
2023-04-27T00:40:01.368Z,9.57
2023-04-27T00:42:30.097Z,9.48
2023-04-27T00:44:59.118Z,9.50
2023-04-27T00:47:27.704Z,9.46
2023-04-27T00:49:56.056Z,9.48
2023-04-27T00:52:27.373Z,9.57
2023-04-27T00:54:58.983Z,9.59
2023-04-27T00:57:27.328Z,9.70
2023-04-27T00:59:55.695Z,9.78
2023-04-27T01:02:24.235Z,9.88
2023-04-27T01:04:53.494Z,9.99
2023-04-27T01:07:26.892Z,10.08
2023-04-27T01:09:56.734Z,10.14
2023-04-27T01:12:25.208Z,10.19
2023-04-27T01:14:53.520Z,10.09
2023-04-27T01:17:22.063Z,9.97
2023-04-27T01:19:51.552Z,9.96
2023-04-27T01:22:19.837Z,10.00
2023-04-27T01:24:52.863Z,10.03
2023-04-27T01:27:21.157Z,10.01
2023-04-27T01:29:49.722Z,9.85
2023-04-27T01:32:18.075Z,9.89
2023-04-27T01:34:46.415Z,9.88
2023-04-27T01:37:15.851Z,9.86
2023-04-27T01:39:44.766Z,9.86
2023-04-27T01:42:14.396Z,9.89
2023-04-27T01:44:42.693Z,9.86
2023-04-27T01:47:11.121Z,9.83
2023-04-27T01:49:39.476Z,9.83
2023-04-27T01:52:07.949Z,9.83
2023-04-27T01:54:36.355Z,9.85
2023-04-27T01:57:04.809Z,9.90
2023-04-27T01:59:36.099Z,9.93
2023-04-27T02:02:05.509Z,10.00
2023-04-27T02:04:34.074Z,10.09
2023-04-27T02:07:02.472Z,10.18
2023-04-27T02:09:30.753Z,10.25
2023-04-27T02:11:59.111Z,10.29
2023-04-27T02:14:27.513Z,10.40
2023-04-27T02:16:57.175Z,10.46
2023-04-27T02:19:25.431Z,10.48
2023-04-27T02:21:53.806Z,10.53
2023-04-27T02:24:22.063Z,10.62
2023-04-27T02:26:50.567Z,10.64
2023-04-27T02:29:19.992Z,10.63
2023-04-27T02:31:48.693Z,10.63
2023-04-27T02:34:18.095Z,10.60
2023-04-27T02:36:46.128Z,10.60
2023-04-27T02:39:14.389Z,10.58
2023-04-27T02:41:42.620Z,10.55
2023-04-27T02:44:10.713Z,10.50
2023-04-27T02:46:38.840Z,10.45
2023-04-27T02:49:08.112Z,10.39
2023-04-27T02:51:37.515Z,10.36
2023-04-27T02:54:05.884Z,10.28
2023-04-27T02:56:33.910Z,10.22
2023-04-27T02:59:02.083Z,10.13
2023-04-27T03:01:30.238Z,10.04
2023-04-27T03:03:58.483Z,9.95
2023-04-27T03:06:27.711Z,9.86
2023-04-27T03:08:57.176Z,9.80
2023-04-27T03:11:25.253Z,9.75
2023-04-27T03:13:54.044Z,9.67
2023-04-27T03:16:22.110Z,9.62
2023-04-27T03:18:50.173Z,9.59
2023-04-27T03:21:18.230Z,9.53
2023-04-27T03:23:46.330Z,9.49
2023-04-27T03:26:16.069Z,9.45
2023-04-27T03:28:44.151Z,9.37
2023-04-27T03:31:13.301Z,9.31
2023-04-27T03:33:42.529Z,9.20
2023-04-27T03:36:11.738Z,9.12
2023-04-27T03:38:42.917Z,9.03
2023-04-27T03:41:11.711Z,8.92
2023-04-27T03:43:41.153Z,8.85
2023-04-27T03:46:09.860Z,8.78
2023-04-27T03:48:38.697Z,8.71
2023-04-27T03:51:07.350Z,8.61
2023-04-27T03:53:35.789Z,8.57
2023-04-27T03:56:04.346Z,8.50
2023-04-27T03:58:32.503Z,8.45
2023-04-27T04:01:11.827Z,8.39
2023-04-27T04:03:40.335Z,8.34
2023-04-27T04:06:09.988Z,8.32
2023-04-27T04:08:38.255Z,8.28
2023-04-27T04:11:06.480Z,8.23
2023-04-27T04:13:36.689Z,8.23
2023-04-27T04:16:06.568Z,8.22
2023-04-27T04:18:36.970Z,8.21
2023-04-27T04:21:06.389Z,8.17
2023-04-27T04:23:34.462Z,8.15
2023-04-27T04:26:03.069Z,8.16
2023-04-27T04:28:35.017Z,8.15
2023-04-27T04:31:05.665Z,8.16
2023-04-27T04:33:34.257Z,8.15
2023-04-27T04:36:06.670Z,8.16
2023-04-27T04:38:35.498Z,8.15
2023-04-27T04:41:03.662Z,8.15
2023-04-27T04:43:34.409Z,8.15
2023-04-27T04:46:06.471Z,8.15
2023-04-27T04:48:35.599Z,8.15
2023-04-27T04:51:06.048Z,8.18
2023-04-27T04:53:34.823Z,8.18
2023-04-27T04:56:10.782Z,8.18
2023-04-27T04:58:39.024Z,8.20
2023-04-27T05:01:07.512Z,8.26
2023-04-27T05:03:35.797Z,8.29
2023-04-27T05:06:03.924Z,8.35
2023-04-27T05:08:33.382Z,8.42
2023-04-27T05:11:01.438Z,8.48
2023-04-27T05:13:29.652Z,8.55
2023-04-27T05:15:57.711Z,8.66
2023-04-27T05:18:25.827Z,8.73
2023-04-27T05:20:53.831Z,8.81
2023-04-27T05:23:21.848Z,8.90
2023-04-27T05:25:51.728Z,9.00
2023-04-27T05:28:19.897Z,9.11
2023-04-27T05:30:47.995Z,9.18
2023-04-27T05:33:16.129Z,9.27
2023-04-27T05:35:44.195Z,9.38
2023-04-27T05:38:15.113Z,9.39
2023-04-27T05:40:43.150Z,9.46
2023-04-27T05:43:12.631Z,9.52
2023-04-27T05:45:41.817Z,9.49
2023-04-27T05:48:10.024Z,9.57
2023-04-27T05:50:38.092Z,9.67
2023-04-27T05:53:06.165Z,9.67
2023-04-27T05:55:34.188Z,9.79
2023-04-27T05:58:08.389Z,9.90
2023-04-27T06:00:38.851Z,10.04
2023-04-27T06:03:07.251Z,10.13
2023-04-27T06:05:35.632Z,10.22
2023-04-27T06:08:03.763Z,10.24
2023-04-27T06:10:31.847Z,10.24
2023-04-27T06:12:59.890Z,10.26
2023-04-27T06:15:27.986Z,10.40
2023-04-27T06:17:57.500Z,10.48
2023-04-27T06:20:25.897Z,10.57
2023-04-27T06:22:53.914Z,10.71
2023-04-27T06:25:22.825Z,10.83
2023-04-27T06:27:52.418Z,10.92
2023-04-27T06:30:20.520Z,11.08
2023-04-27T06:32:48.638Z,11.23
2023-04-27T06:35:18.375Z,11.37
2023-04-27T06:37:47.291Z,11.48
2023-04-27T06:40:15.486Z,11.54
2023-04-27T06:42:43.521Z,11.61
2023-04-27T06:45:12.436Z,11.73
2023-04-27T06:47:40.521Z,11.87
2023-04-27T06:50:09.667Z,11.97
2023-04-27T06:52:39.057Z,12.11
2023-04-27T06:55:08.013Z,12.20
2023-04-27T06:57:36.418Z,12.32
2023-04-27T07:00:05.118Z,12.42
2023-04-27T07:02:33.262Z,12.61
2023-04-27T07:05:01.420Z,12.76
2023-04-27T07:07:29.523Z,12.94
2023-04-27T07:09:59.133Z,12.99
2023-04-27T07:12:27.183Z,13.08
2023-04-27T07:14:55.750Z,13.24
2023-04-27T07:17:23.822Z,13.39
2023-04-27T07:19:51.875Z,13.77
2023-04-27T07:22:20.142Z,14.24
2023-04-27T07:24:48.420Z,14.75
2023-04-27T07:27:18.319Z,14.94
2023-04-27T07:29:46.392Z,15.12
2023-04-27T07:32:14.960Z,15.39
2023-04-27T07:34:52.701Z,15.81
2023-04-27T07:37:22.468Z,16.11
2023-04-27T07:39:52.004Z,16.17
2023-04-27T07:42:23.662Z,16.26
2023-04-27T07:44:52.372Z,16.49
2023-04-27T07:47:20.589Z,16.75
2023-04-27T07:49:48.651Z,17.07
2023-04-27T07:52:16.804Z,17.20
2023-04-27T07:54:44.897Z,17.20
2023-04-27T07:57:12.991Z,17.32
2023-04-27T07:59:42.392Z,17.46
2023-04-27T08:02:18.315Z,17.51
2023-04-27T08:04:48.792Z,17.56
2023-04-27T08:07:19.288Z,17.66
2023-04-27T08:09:47.943Z,17.79
2023-04-27T08:12:16.013Z,17.87
2023-04-27T08:14:45.421Z,17.90
2023-04-27T08:17:13.551Z,17.58
2023-04-27T08:19:42.238Z,17.72
2023-04-27T08:22:10.518Z,17.74
2023-04-27T08:24:38.583Z,17.82
2023-04-27T08:27:07.301Z,17.87
2023-04-27T08:29:35.444Z,18.09
2023-04-27T08:32:05.757Z,18.25
2023-04-27T08:34:33.786Z,18.22
2023-04-27T08:37:03.317Z,18.19
2023-04-27T08:39:31.321Z,17.78
2023-04-27T08:41:59.390Z,17.53
2023-04-27T08:44:27.505Z,17.51
2023-04-27T08:46:55.548Z,17.54
2023-04-27T08:49:24.934Z,17.33
2023-04-27T08:51:52.999Z,17.47
2023-04-27T08:54:21.894Z,17.72
2023-04-27T08:56:49.959Z,17.90
2023-04-27T08:59:18.556Z,17.90
2023-04-27T09:01:48.646Z,18.00
2023-04-27T09:04:17.899Z,18.05
2023-04-27T09:06:49.076Z,18.29
2023-04-27T09:09:24.508Z,18.52
2023-04-27T09:11:52.556Z,18.65
2023-04-27T09:14:21.881Z,18.89
2023-04-27T09:16:57.381Z,19.12
2023-04-27T09:19:26.528Z,19.11
2023-04-27T09:22:10.811Z,19.17
2023-04-27T09:24:39.295Z,19.08
2023-04-27T09:27:20.160Z,19.31
2023-04-27T09:29:48.237Z,19.48
2023-04-27T09:32:17.916Z,19.81
2023-04-27T09:34:46.469Z,19.94
2023-04-27T09:37:16.636Z,20.25
2023-04-27T09:39:46.164Z,20.63
2023-04-27T09:42:15.923Z,20.73
2023-04-27T09:44:44.026Z,20.48
2023-04-27T09:47:14.662Z,20.29
2023-04-27T09:49:42.914Z,20.22
2023-04-27T09:52:11.643Z,20.15
2023-04-27T09:54:42.207Z,20.48
2023-04-27T09:57:32.264Z,20.40
2023-04-27T10:00:11.154Z,20.55
2023-04-27T10:02:53.620Z,20.46
2023-04-27T10:05:44.953Z,20.20
2023-04-27T10:08:13.220Z,20.11
2023-04-27T10:10:49.575Z,20.15
2023-04-27T10:13:24.939Z,19.90
2023-04-27T10:15:53.191Z,19.67
2023-04-27T10:18:28.823Z,19.63
2023-04-27T10:20:57.018Z,19.65
2023-04-27T10:23:26.584Z,19.72
2023-04-27T10:25:57.325Z,19.71
2023-04-27T10:28:25.414Z,19.59
2023-04-27T10:30:53.617Z,19.57
2023-04-27T10:33:24.193Z,19.60
2023-04-27T10:35:56.958Z,19.69
2023-04-27T10:38:29.836Z,19.69
2023-04-27T10:41:01.901Z,19.87
2023-04-27T10:43:31.321Z,19.94
2023-04-27T10:46:09.304Z,19.84
2023-04-27T10:48:37.472Z,19.92
2023-04-27T10:51:06.487Z,19.81
2023-04-27T10:53:38.745Z,19.72
2023-04-27T10:56:08.687Z,19.63
2023-04-27T11:01:10.160Z,19.51
2023-04-27T11:03:39.066Z,19.47
2023-04-27T11:06:08.794Z,19.51
2023-04-27T11:08:45.503Z,19.45
2023-04-27T11:11:18.250Z,19.27
2023-04-27T11:13:49.422Z,19.24
2023-04-27T11:16:19.454Z,19.22
2023-04-27T11:18:47.578Z,19.26
2023-04-27T11:21:17.304Z,19.22
2023-04-27T11:23:45.549Z,19.26
2023-04-27T11:26:14.907Z,19.40
2023-04-27T11:28:45.776Z,19.53
2023-04-27T11:31:14.072Z,19.84
2023-04-27T11:33:49.425Z,20.16
2023-04-27T11:36:18.445Z,20.36
2023-04-27T11:38:47.613Z,20.43
2023-04-27T11:41:19.604Z,20.41
2023-04-27T11:43:49.970Z,20.39
2023-04-27T11:46:23.687Z,20.32
2023-04-27T11:48:51.941Z,20.16
2023-04-27T11:51:20.521Z,19.95
2023-04-27T11:53:51.329Z,19.73
2023-04-27T11:56:19.503Z,19.54
2023-04-27T11:58:49.168Z,19.60
2023-04-27T12:01:24.851Z,19.57
2023-04-27T12:04:03.475Z,19.67
2023-04-27T12:06:33.873Z,19.90
2023-04-27T12:09:02.292Z,20.24
2023-04-27T12:11:30.467Z,20.49
2023-04-27T12:13:59.930Z,20.65
2023-04-27T12:16:28.420Z,20.63
2023-04-27T12:18:56.533Z,20.63
2023-04-27T12:21:24.617Z,20.37
2023-04-27T12:23:53.002Z,20.17
2023-04-27T12:26:21.570Z,20.20
2023-04-27T12:28:49.648Z,20.34
2023-04-27T12:31:24.720Z,20.40
2023-04-27T12:33:54.170Z,20.34
2023-04-27T12:36:22.187Z,20.31
2023-04-27T12:38:50.261Z,20.45
2023-04-27T12:41:18.563Z,20.64
2023-04-27T12:43:46.850Z,20.89
2023-04-27T12:46:14.913Z,21.29
2023-04-27T12:48:45.100Z,21.66
2023-04-27T12:51:13.651Z,21.80
2023-04-27T12:53:41.974Z,21.85
2023-04-27T12:56:10.100Z,21.68
2023-04-27T12:58:38.127Z,21.61
2023-04-27T13:01:07.777Z,21.63
2023-04-27T13:03:36.617Z,21.50
2023-04-27T13:06:09.466Z,21.48
2023-04-27T13:08:39.120Z,21.57
2023-04-27T13:11:07.261Z,21.69
2023-04-27T13:13:35.871Z,21.53
2023-04-27T13:16:04.375Z,21.82
2023-04-27T13:18:34.924Z,21.95
2023-04-27T13:21:04.107Z,22.05
2023-04-27T13:23:33.704Z,22.12
2023-04-27T13:26:02.280Z,22.35
2023-04-27T13:28:30.331Z,22.60
2023-04-27T13:31:00.110Z,22.72
2023-04-27T13:33:28.456Z,22.44
2023-04-27T13:35:56.586Z,22.18
2023-04-27T13:38:24.744Z,22.02
2023-04-27T13:40:54.937Z,21.99
2023-04-27T13:43:23.020Z,21.87
2023-04-27T13:45:52.572Z,21.80
2023-04-27T13:48:20.710Z,21.90
2023-04-27T13:50:48.963Z,21.97
2023-04-27T13:53:17.347Z,21.93
2023-04-27T13:55:45.822Z,21.99
2023-04-27T13:58:15.226Z,22.27
2023-04-27T14:00:43.306Z,22.38
2023-04-27T14:03:12.026Z,22.20
2023-04-27T14:05:40.328Z,21.99
2023-04-27T14:08:08.319Z,22.08
2023-04-27T14:10:37.618Z,22.08
2023-04-27T14:13:06.055Z,21.90
2023-04-27T14:15:37.358Z,21.72
2023-04-27T14:18:07.721Z,21.43
2023-04-27T14:20:36.402Z,21.36
2023-04-27T14:23:05.267Z,21.33
2023-04-27T14:25:34.578Z,21.33
2023-04-27T14:28:03.957Z,21.40
2023-04-27T14:30:32.769Z,21.44
2023-04-27T14:33:02.374Z,21.34
2023-04-27T14:35:30.557Z,21.39
2023-04-27T14:38:02.340Z,21.60
2023-04-27T14:40:30.710Z,21.87
2023-04-27T14:42:59.452Z,22.06
2023-04-27T14:45:36.665Z,22.27
2023-04-27T14:48:13.459Z,22.23
2023-04-27T14:50:43.451Z,22.07
2023-04-27T14:53:11.658Z,22.06
2023-04-27T14:55:41.148Z,21.97
2023-04-27T14:58:09.309Z,21.76
2023-04-27T15:00:37.313Z,21.58
2023-04-27T15:03:05.721Z,21.54
2023-04-27T15:05:35.267Z,21.59
2023-04-27T15:08:03.796Z,21.52
2023-04-27T15:10:32.004Z,21.51
2023-04-27T15:12:59.996Z,21.49
2023-04-27T15:15:28.036Z,21.48
2023-04-27T15:17:56.115Z,21.24
2023-04-27T15:20:24.377Z,21.11
2023-04-27T15:22:53.828Z,21.03
2023-04-27T15:25:25.096Z,20.89
2023-04-27T15:27:53.112Z,20.70
2023-04-27T15:30:21.110Z,20.73
2023-04-27T15:32:49.558Z,20.64
2023-04-27T15:35:17.846Z,20.63
2023-04-27T15:37:45.952Z,20.56
2023-04-27T15:40:15.421Z,20.55
2023-04-27T15:42:43.434Z,20.58
2023-04-27T15:45:11.960Z,20.55
2023-04-27T15:47:40.056Z,20.53
2023-04-27T15:50:09.499Z,20.49
2023-04-27T15:52:37.730Z,20.39
2023-04-27T15:55:06.765Z,20.32
2023-04-27T15:57:36.234Z,20.22
2023-04-27T16:00:08.268Z,20.09
2023-04-27T16:02:38.786Z,19.96
2023-04-27T16:05:08.602Z,19.86
2023-04-27T16:07:39.484Z,19.88
2023-04-27T16:10:09.224Z,20.00
2023-04-27T16:12:38.896Z,20.05
2023-04-27T16:15:10.757Z,19.99
2023-04-27T16:17:40.060Z,19.90
2023-04-27T16:20:09.647Z,19.81
2023-04-27T16:22:38.283Z,19.66
2023-04-27T16:25:12.463Z,19.59
2023-04-27T16:27:42.584Z,19.51
2023-04-27T16:30:11.124Z,19.47
2023-04-27T16:32:39.233Z,19.43
2023-04-27T16:35:08.457Z,19.42
2023-04-27T16:37:36.566Z,19.38
2023-04-27T16:40:07.063Z,19.30
2023-04-27T16:42:35.538Z,19.11
2023-04-27T16:45:06.778Z,19.02
2023-04-27T16:47:36.652Z,18.93
2023-04-27T16:50:05.318Z,18.89
2023-04-27T16:52:33.483Z,18.92
2023-04-27T16:55:01.758Z,18.91
2023-04-27T16:57:29.990Z,18.89
2023-04-27T16:59:58.112Z,18.88
2023-04-27T17:02:27.903Z,18.87
2023-04-27T17:04:56.239Z,18.77
2023-04-27T17:07:25.534Z,18.71
2023-04-27T17:09:54.429Z,18.73
2023-04-27T17:12:22.716Z,18.70
2023-04-27T17:14:51.140Z,18.63
2023-04-27T17:17:20.048Z,18.56
2023-04-27T17:19:49.467Z,18.50
2023-04-27T17:22:17.582Z,18.36
2023-04-27T17:24:45.800Z,18.28
2023-04-27T17:27:13.871Z,18.21
2023-04-27T17:29:41.922Z,18.14
2023-04-27T17:32:10.444Z,18.13
2023-04-27T17:54:08.566Z,17.59
2023-04-27T17:56:36.677Z,17.59
2023-04-27T17:59:04.832Z,17.55
2023-04-27T18:01:33.242Z,17.60
2023-04-27T18:04:04.021Z,17.64
2023-04-27T18:06:33.901Z,17.65
2023-04-27T18:09:02.132Z,17.63
2023-04-27T18:11:31.586Z,17.59
2023-04-27T18:13:59.646Z,17.54
2023-04-27T18:16:27.837Z,17.48
2023-04-27T18:18:55.979Z,17.43
2023-04-27T18:21:26.718Z,17.38
2023-04-27T18:23:54.819Z,17.36
2023-04-27T18:26:23.071Z,17.34
2023-04-27T18:28:52.556Z,17.29
2023-04-27T18:31:21.277Z,17.21
2023-04-27T18:33:49.364Z,17.13
2023-04-27T18:36:17.439Z,17.06
2023-04-27T18:38:45.511Z,17.00
2023-04-27T18:41:13.552Z,16.87
2023-04-27T18:43:41.596Z,16.73
2023-04-27T18:46:11.015Z,16.59
2023-04-27T18:48:39.117Z,16.47
2023-04-27T18:51:07.225Z,16.33
2023-04-27T18:53:35.440Z,16.26
2023-04-27T18:56:03.510Z,16.16
2023-04-27T18:58:31.625Z,16.08
2023-04-27T19:00:59.711Z,16.05
2023-04-27T19:03:29.302Z,16.01
2023-04-27T19:05:58.751Z,15.90
2023-04-27T19:08:26.843Z,15.88
2023-04-27T19:10:54.901Z,15.90
2023-04-27T19:13:22.949Z,15.85
2023-04-27T19:15:51.541Z,15.83
2023-04-27T19:18:19.707Z,15.76
2023-04-27T19:20:49.931Z,15.63
2023-04-27T19:23:19.221Z,15.60
2023-04-27T19:25:48.325Z,15.58
2023-04-27T19:28:18.792Z,15.58
2023-04-27T19:30:47.696Z,15.54
2023-04-27T19:33:20.500Z,15.45
2023-04-27T19:35:52.364Z,15.42
2023-04-27T19:38:22.473Z,15.30
2023-04-27T19:40:50.577Z,15.27
2023-04-27T19:43:19.762Z,15.27
2023-04-27T19:45:49.168Z,15.26
2023-04-27T19:48:17.556Z,15.24
2023-04-27T19:50:45.816Z,15.14
2023-04-27T19:53:16.102Z,15.10
2023-04-27T19:55:44.318Z,15.09
2023-04-27T19:58:12.426Z,15.01
2023-04-27T20:00:40.622Z,15.02
2023-04-27T20:03:09.036Z,14.98
2023-04-27T20:05:38.543Z,14.86
2023-04-27T20:08:07.874Z,14.85
2023-04-27T20:10:37.761Z,14.87
2023-04-27T20:13:06.087Z,14.86
2023-04-27T20:18:38.094Z,14.84
2023-04-27T20:21:06.345Z,14.81
2023-04-27T20:23:34.586Z,14.81
2023-04-27T20:26:04.595Z,14.74
2023-04-27T20:28:32.639Z,14.75
2023-04-27T20:31:00.725Z,14.69
2023-04-27T20:33:28.822Z,14.62
2023-04-27T20:36:03.685Z,14.60
2023-04-27T20:38:38.376Z,14.63
2023-04-27T20:41:08.673Z,14.57
2023-04-27T20:43:39.140Z,14.48
2023-04-27T20:46:07.737Z,14.52
2023-04-27T20:48:36.245Z,14.47
2023-04-27T20:51:04.567Z,14.40
2023-04-27T20:53:32.589Z,14.36
2023-04-27T20:56:00.674Z,14.34
2023-04-27T20:58:30.083Z,14.30
2023-04-27T21:00:58.202Z,14.26
2023-04-27T21:03:26.409Z,14.29
2023-04-27T21:05:54.682Z,14.27
2023-04-27T21:08:22.724Z,14.23
2023-04-27T21:10:53.940Z,14.23
2023-04-27T21:13:22.056Z,14.07
2023-04-27T21:15:51.437Z,14.11
2023-04-27T21:18:29.603Z,14.07
2023-04-27T21:20:58.158Z,14.05
2023-04-27T21:23:26.311Z,14.03
2023-04-27T21:25:54.335Z,14.03
2023-04-27T21:28:22.414Z,14.03
2023-04-27T21:30:51.902Z,14.06
2023-04-27T21:33:20.120Z,14.06
2023-04-27T21:35:48.161Z,14.04
2023-04-27T21:38:16.209Z,14.01
2023-04-27T21:40:44.268Z,13.99
2023-04-27T21:43:12.337Z,13.98
2023-04-27T21:45:40.474Z,13.92
2023-04-27T21:48:10.397Z,13.85
2023-04-27T21:50:38.520Z,13.84
2023-04-27T21:53:06.603Z,13.71
2023-04-27T21:55:34.616Z,13.69
2023-04-27T21:58:02.663Z,13.68
2023-04-27T22:00:30.695Z,13.64
2023-04-27T22:02:58.950Z,13.56
2023-04-27T22:05:29.324Z,13.50
2023-04-27T22:07:58.154Z,13.45
2023-04-27T22:10:26.244Z,13.41
2023-04-27T22:12:54.789Z,13.45
2023-04-27T22:15:23.133Z,13.38
2023-04-27T22:17:51.290Z,13.38
2023-04-27T22:20:19.642Z,13.33
2023-04-27T22:22:49.112Z,13.29
2023-04-27T22:25:17.260Z,13.24
2023-04-27T22:27:45.755Z,13.16
2023-04-27T22:30:15.483Z,13.10
2023-04-27T22:32:43.620Z,13.07
2023-04-27T22:35:24.731Z,13.02
2023-04-27T22:37:55.870Z,12.99
2023-04-27T22:40:24.516Z,12.96
2023-04-27T22:42:52.752Z,12.90
2023-04-27T22:45:20.786Z,12.86
2023-04-27T22:47:49.517Z,12.79
2023-04-27T22:50:17.907Z,12.66
2023-04-27T22:52:46.078Z,12.64
2023-04-27T22:55:15.538Z,12.63
2023-04-27T22:57:44.844Z,12.60
2023-04-27T23:00:13.740Z,12.63
2023-04-27T23:02:42.693Z,12.56
2023-04-27T23:05:12.418Z,12.50
2023-04-27T23:07:42.828Z,12.46
2023-04-27T23:10:13.006Z,12.36
2023-04-27T23:12:42.454Z,12.31
2023-04-27T23:15:11.163Z,12.29
2023-04-27T23:17:39.264Z,12.27
2023-04-27T23:20:24.104Z,12.26
2023-04-27T23:22:55.177Z,12.19
2023-04-27T23:25:23.333Z,12.17
2023-04-27T23:27:53.146Z,12.16
2023-04-27T23:30:21.992Z,12.15
2023-04-27T23:32:50.270Z,12.10
2023-04-27T23:35:18.499Z,12.12
2023-04-27T23:37:46.521Z,12.12
2023-04-27T23:40:14.608Z,12.11
2023-04-27T23:42:42.626Z,12.02
2023-04-27T23:45:12.715Z,12.02
2023-04-27T23:47:40.964Z,12.02
2023-04-27T23:50:09.783Z,11.99
2023-04-27T23:52:37.867Z,12.00
2023-04-27T23:55:07.127Z,11.98
2023-04-27T23:57:35.190Z,11.94
